Time;durP1;ratioP1;P1;durP2;ratioP2;P2;SDS_P1;SDS_P2;PMS_P1;PMS_P2;Temp;Humidity;BMP_temperature;BMP_pressure;BME280_temperature;BME280_humidity;BME280_pressure;Samples;Min_cycle;Max_cycle;Signal;HPM_P1;HPM_P2
2021/03/29 00:01:02;;;;;;;;;;;;;;;6.38;72.36;101799.28;4907295;29;19923;-80
2021/03/29 00:04:48;;;;;;;;;;;;;;;6.30;72.48;101798.78;4887183;29;19963;-80
2021/03/29 00:07:56;;;;;;;;;;;;;;;6.25;72.42;101796.72;4880040;29;19967;-81
2021/03/29 00:14:02;;;;;;;;;;;;;;;6.20;72.37;101788.28;4875606;29;19920;-81
2021/03/29 00:17:02;;;;;;;;;;;;;;;;;;;;;
2021/03/29 00:20:05;;;;;;;;;;;;;;;6.10;72.59;101804.56;4956422;28;19930;-80
2021/03/29 00:22:48;;;;;;;;;;;;;;;6.06;72.76;101786.81;4971559;28;20032;-82
2021/03/29 00:33:06;;;;;;;;;;;;;;;;;;;;;
2021/03/29 00:35:58;;;;;;;;;;;;;;;5.85;73.10;101783.44;4839403;29;20415;-80
2021/03/29 00:42:45;;;;;;;;;;;;;;;5.77;73.07;101781.00;4863613;28;19926;-80
2021/03/29 00:45:33;;;;;;;;;;;;;;;5.70;73.15;101778.31;4952318;28;19918;-81
2021/03/29 00:51:48;;;;;;;;;;;;;;;5.69;73.11;101782.16;4988516;28;20000;-80
2021/03/29 00:54:47;;;;;;;;;;;;;;;5.61;73.29;101785.22;5018480;28;20372;-80
2021/03/29 00:57:56;;;;;;;;;;;;;;;5.60;73.14;101781.63;4966454;28;19922;-79
2021/03/29 01:01:29;;;;;;;;;;;;;;;5.56;73.16;101772.09;4944227;28;19922;-81
2021/03/29 01:08:00;;;;;;;;;;;;;;;5.45;73.21;101767.34;5040944;28;19942;-80
2021/03/29 01:10:50;;;;;;;;;;;;;;;5.41;73.29;101768.06;5055837;28;19916;-80
2021/03/29 01:17:20;;;;;;;;;;;;;;;;;;;;;
2021/03/29 01:24:20;;;;;;;;;;;;;;;5.24;73.46;101765.91;4975381;28;19984;-80
2021/03/29 01:38:17;;;;;;;;;;;;;;;;;;;;;
2021/03/29 01:45:12;;;;;;;;;;;;;;;4.97;73.84;101773.59;5022873;28;19922;-80
2021/03/29 01:48:17;;;;;;;;;;;;;;;4.95;73.82;101764.69;5026678;28;20303;-80
2021/03/29 01:51:30;;;;;;;;;;;;;;;4.90;73.67;101768.16;4920152;28;19919;-80
2021/03/29 01:54:22;;;;;;;;;;;;;;;4.85;73.92;101756.13;4918700;29;19942;-80
2021/03/29 01:56:59;;;;;;;;;;;;;;;4.81;73.87;101755.72;4927318;28;20501;-80
2021/03/29 02:00:06;;;;;;;;;;;;;;;4.76;73.92;101754.72;5077921;28;19999;-80
2021/03/29 02:02:37;;;;;;;;;;;;;;;4.81;73.70;101754.88;5095751;28;19924;-80
2021/03/29 02:05:15;;;;;;;;;;;;;;;4.69;73.84;101750.09;5069109;28;19951;-80
2021/03/29 02:07:56;;;;;;;;;;;;;;;4.72;73.95;101761.75;5075099;28;20349;-80
2021/03/29 02:10:33;;;;;;;;;;;;;;;4.72;73.85;101753.50;5044052;28;19916;-80
2021/03/29 02:13:12;;;;;;;;;;;;;;;4.67;73.83;101749.47;5062830;28;19926;-80
2021/03/29 02:16:12;;;;;;;;;;;;;;;4.60;73.88;101750.63;5055046;28;19947;-80
2021/03/29 02:19:09;;;;;;;;;;;;;;;;;;;;;
2021/03/29 02:22:19;;;;;;;;;;;;;;;4.55;74.00;101747.69;5079121;28;20035;-80
2021/03/29 02:25:19;;;;;;;;;;;;;;;4.49;74.21;101732.94;5023763;28;19960;-79
2021/03/29 02:28:19;;;;;;;;;;;;;;;4.49;74.19;101738.44;5061644;28;19916;-80
2021/03/29 02:34:28;;;;;;;;;;;;;;;4.43;74.24;101731.91;5080579;28;20288;-80
2021/03/29 02:37:09;;;;;;;;;;;;;;;4.40;74.36;101731.50;5073004;28;19955;-79
2021/03/29 02:39:37;;;;;;;;;;;;;;;4.37;74.56;101723.69;5067057;28;19916;-80
2021/03/29 02:45:50;;;;;;;;;;;;;;;4.31;74.68;101727.34;4976318;28;19922;-79
2021/03/29 02:48:23;;;;;;;;;;;;;;;4.30;74.78;101728.41;5003780;28;19979;-79
2021/03/29 02:51:40;;;;;;;;;;;;;;;;;;;;;
2021/03/29 02:54:13;;;;;;;;;;;;;;;4.23;74.74;101733.94;4983662;28;19960;-80
2021/03/29 02:59:50;;;;;;;;;;;;;;;4.16;74.63;101727.66;5033290;28;19921;-79
2021/03/29 03:05:33;;;;;;;;;;;;;;;4.15;74.59;101732.34;5014810;28;19925;-80
2021/03/29 03:08:29;;;;;;;;;;;;;;;;;;;;;
2021/03/29 03:11:19;;;;;;;;;;;;;;;4.08;74.66;101720.53;5032758;28;19940;-79
2021/03/29 03:14:10;;;;;;;;;;;;;;;4.10;74.64;101725.81;5032828;28;19929;-80
2021/03/29 03:16:52;;;;;;;;;;;;;;;4.05;74.69;101717.38;5031763;28;19917;-82
2021/03/29 03:20:21;;;;;;;;;;;;;;;;;;;;;
2021/03/29 03:22:58;;;;;;;;;;;;;;;3.97;74.71;101718.47;5007502;28;19929;-79
2021/03/29 03:25:37;;;;;;;;;;;;;;;;;;;;;
2021/03/29 03:28:27;;;;;;;;;;;;;;;3.93;74.88;101720.00;5042980;28;19959;-79
2021/03/29 03:31:09;;;;;;;;;;;;;;;;;;;;;
2021/03/29 03:37:42;;;;;;;;;;;;;;;3.83;74.74;101714.97;5050093;28;19916;-80
2021/03/29 03:40:14;;;;;;;;;;;;;;;3.84;74.57;101710.31;5040183;28;20288;-83
2021/03/29 03:43:13;;;;;;;;;;;;;;;3.84;74.61;101710.31;5057321;28;20229;-80
2021/03/29 03:46:01;;;;;;;;;;;;;;;3.80;74.65;101713.50;5059992;28;19926;-80
2021/03/29 03:49:14;;;;;;;;;;;;;;;3.74;74.72;101708.03;5087236;28;19936;-80
2021/03/29 03:51:52;;;;;;;;;;;;;;;3.73;74.63;101707.22;5081404;28;19915;-80
2021/03/29 03:54:32;;;;;;;;;;;;;;;3.73;74.63;101706.34;5059233;28;19927;-80
2021/03/29 03:57:14;;;;;;;;;;;;;;;3.67;74.80;101709.97;5079214;28;19968;-80
2021/03/29 03:59:41;;;;;;;;;;;;;;;3.63;74.85;101711.50;5085332;28;19922;-80
2021/03/29 04:02:09;;;;;;;;;;;;;;;3.60;74.86;101707.28;5056074;28;20347;-80
2021/03/29 04:04:37;;;;;;;;;;;;;;;3.57;74.94;101704.97;5061608;28;19916;-79
2021/03/29 04:07:20;;;;;;;;;;;;;;;3.56;74.85;101712.34;5058355;28;20363;-80
2021/03/29 04:10:17;;;;;;;;;;;;;;;3.55;74.85;101718.06;5063122;28;19920;-79
2021/03/29 04:12:58;;;;;;;;;;;;;;;3.50;74.99;101717.88;5069063;28;19961;-80
2021/03/29 04:15:29;;;;;;;;;;;;;;;3.49;74.85;101710.69;5058955;28;19920;-80
2021/03/29 04:18:18;;;;;;;;;;;;;;;3.48;74.80;101701.63;5061453;28;20531;-80
2021/03/29 04:21:07;;;;;;;;;;;;;;;3.47;74.82;101697.16;5055365;28;19924;-80
2021/03/29 04:23:43;;;;;;;;;;;;;;;3.45;74.90;101692.97;5068071;28;19923;-80
2021/03/29 04:26:44;;;;;;;;;;;;;;;;;;;;;
2021/03/29 04:29:16;;;;;;;;;;;;;;;3.39;75.01;101707.56;5096738;28;19923;-80
2021/03/29 04:31:58;;;;;;;;;;;;;;;3.38;75.01;101708.63;5075767;28;19916;-80
2021/03/29 04:37:41;;;;;;;;;;;;;;;3.26;75.19;101700.19;5046209;28;20299;-80
2021/03/29 04:40:23;;;;;;;;;;;;;;;3.26;75.21;101709.31;5067668;28;19928;-79
2021/03/29 04:43:17;;;;;;;;;;;;;;;3.23;75.13;101701.50;5070536;28;19980;-79
2021/03/29 04:46:19;;;;;;;;;;;;;;;;;;;;;
2021/03/29 04:49:40;;;;;;;;;;;;;;;;;;;;;
2021/03/29 04:52:22;;;;;;;;;;;;;;;3.19;75.28;101699.41;5072608;28;20032;-79
2021/03/29 04:58:00;;;;;;;;;;;;;;;3.15;75.22;101701.75;5066310;28;20037;-79
2021/03/29 05:00:44;;;;;;;;;;;;;;;3.09;75.27;101700.72;5033452;28;19927;-79
2021/03/29 05:03:39;;;;;;;;;;;;;;;3.09;75.27;101699.84;5070416;28;19916;-80
2021/03/29 05:09:04;;;;;;;;;;;;;;;3.04;75.46;101700.50;5061443;28;19916;-80
2021/03/29 05:11:53;;;;;;;;;;;;;;;3.04;75.53;101696.91;5074739;28;19927;-80
2021/03/29 05:14:59;;;;;;;;;;;;;;;3.05;75.37;101709.56;5056763;28;19977;-80
2021/03/29 05:17:32;;;;;;;;;;;;;;;3.01;75.45;101708.31;5052743;28;19942;-79
2021/03/29 05:19:57;;;;;;;;;;;;;;;2.98;75.53;101706.00;5098458;28;19999;-79
2021/03/29 05:22:22;;;;;;;;;;;;;;;2.94;75.58;101707.50;5047521;28;19916;-79
2021/03/29 05:24:48;;;;;;;;;;;;;;;2.93;75.59;101711.31;5063270;28;19935;-78
2021/03/29 05:27:13;;;;;;;;;;;;;;;2.93;75.58;101708.56;5080544;28;19995;-79
2021/03/29 05:29:42;;;;;;;;;;;;;;;2.91;75.77;101711.50;5047250;28;19920;-79
2021/03/29 05:32:14;;;;;;;;;;;;;;;2.90;75.75;101712.56;5059213;28;20391;-79
2021/03/29 05:34:39;;;;;;;;;;;;;;;2.91;75.76;101706.00;5077033;28;20291;-79
2021/03/29 05:37:05;;;;;;;;;;;;;;;2.90;75.69;101707.91;5096663;28;19912;-79
2021/03/29 05:39:30;;;;;;;;;;;;;;;2.90;75.78;101713.41;5061782;28;19985;-79
2021/03/29 05:41:59;;;;;;;;;;;;;;;2.82;76.16;101712.78;5061861;28;20291;-80
2021/03/29 05:44:24;;;;;;;;;;;;;;;2.86;75.88;101709.38;5060955;28;19934;-69
2021/03/29 05:47:05;;;;;;;;;;;;;;;2.84;75.76;101706.03;5096055;28;20326;-79
2021/03/29 05:49:34;;;;;;;;;;;;;;;2.85;75.92;101715.09;5061895;28;19916;-81
2021/03/29 05:51:59;;;;;;;;;;;;;;;2.89;77.05;101710.88;5078551;28;19912;-79
2021/03/29 05:54:24;;;;;;;;;;;;;;;3.07;79.00;101713.78;5055675;28;19962;-78
2021/03/29 05:56:50;;;;;;;;;;;;;;;3.12;79.48;101724.97;5073142;28;21431;-78
2021/03/29 06:02:04;;;;;;;;;;;;;;;3.25;79.45;101724.06;5065627;28;19958;-78
2021/03/29 06:04:42;;;;;;;;;;;;;;;3.30;79.36;101724.28;5059359;28;20364;-78
2021/03/29 06:07:21;;;;;;;;;;;;;;;3.34;79.46;101731.03;5065212;28;19955;-78
2021/03/29 06:09:47;;;;;;;;;;;;;;;3.35;79.50;101732.72;5059599;28;19912;-78
2021/03/29 06:12:16;;;;;;;;;;;;;;;3.39;79.32;101733.13;5071808;28;19916;-77
2021/03/29 06:14:43;;;;;;;;;;;;;;;3.46;79.33;101735.88;5042366;28;19912;-78
2021/03/29 06:17:15;;;;;;;;;;;;;;;3.48;79.42;101729.09;5041450;28;19920;-79
2021/03/29 06:19:41;;;;;;;;;;;;;;;3.52;79.48;101732.25;5073110;28;19962;-78
2021/03/29 06:22:13;;;;;;;;;;;;;;;3.60;79.42;101737.50;5060360;28;19966;-78
2021/03/29 06:24:56;;;;;;;;;;;;;;;3.68;79.22;101734.50;5098388;28;19916;-78
2021/03/29 06:27:29;;;;;;;;;;;;;;;3.73;79.24;101731.94;5076938;28;20394;-78
2021/03/29 06:30:10;;;;;;;;;;;;;;;3.85;79.50;101732.09;5076048;28;19976;-78
2021/03/29 06:32:35;;;;;;;;;;;;;;;3.91;79.38;101731.19;5077683;28;20371;-78
2021/03/29 06:35:00;;;;;;;;;;;;;;;4.03;79.21;101739.59;5078182;28;19912;-78
2021/03/29 06:37:26;;;;;;;;;;;;;;;4.10;79.15;101743.16;5060569;28;19952;-78
2021/03/29 06:39:51;;;;;;;;;;;;;;;4.20;79.14;101746.22;5060994;28;19920;-79
2021/03/29 06:42:16;;;;;;;;;;;;;;;4.29;78.91;101748.72;5054683;28;19938;-78
2021/03/29 06:44:42;;;;;;;;;;;;;;;4.33;78.98;101744.47;5071545;28;19924;-78
2021/03/29 06:47:07;;;;;;;;;;;;;;;4.40;79.22;101746.13;5079074;28;19916;-69
2021/03/29 06:49:43;;;;;;;;;;;;;;;4.50;79.48;101745.59;5094795;28;19920;-71
2021/03/29 06:52:38;;;;;;;;;;;;;;;4.57;78.67;101746.41;5077905;28;19916;-78
2021/03/29 06:55:16;;;;;;;;;;;;;;;4.69;78.75;101750.09;5064393;28;20013;-78
2021/03/29 06:57:41;;;;;;;;;;;;;;;4.80;79.01;101759.56;5095595;28;20352;-77
2021/03/29 07:00:11;;;;;;;;;;;;;;;4.91;79.31;101757.97;5059420;28;19920;-78
2021/03/29 07:02:41;;;;;;;;;;;;;;;5.02;79.45;101757.22;5094682;28;19959;-77
2021/03/29 07:05:09;;;;;;;;;;;;;;;5.13;78.92;101763.91;5077261;28;19916;-78
2021/03/29 07:07:36;;;;;;;;;;;;;;;5.25;79.03;101764.81;5075829;28;20314;-78
2021/03/29 07:10:02;;;;;;;;;;;;;;;5.38;78.98;101758.34;5043863;28;19924;-78
2021/03/29 07:12:38;;;;;;;;;;;;;;;5.51;78.28;101757.34;5066025;28;19916;-78
2021/03/29 07:15:12;;;;;;;;;;;;;;;5.65;79.16;101763.53;5075962;28;19919;-78
2021/03/29 07:17:44;;;;;;;;;;;;;;;5.78;79.63;101772.47;5057401;28;19920;-78
2021/03/29 07:20:21;;;;;;;;;;;;;;;5.93;79.61;101768.47;5077407;28;19920;-78
2021/03/29 07:22:49;;;;;;;;;;;;;;;6.07;79.25;101766.41;5063645;28;20299;-78
2021/03/29 07:25:23;;;;;;;;;;;;;;;6.20;79.61;101761.53;5037442;28;19917;-79
2021/03/29 07:27:51;;;;;;;;;;;;;;;6.34;79.28;101761.34;5046873;28;19923;-77
2021/03/29 07:30:39;;;;;;;;;;;;;;;6.49;79.72;101768.13;5058740;28;19944;-78
2021/03/29 07:33:07;;;;;;;;;;;;;;;6.66;79.48;101759.16;5095814;28;19916;-78
2021/03/29 07:35:54;;;;;;;;;;;;;;;;;;;;;
2021/03/29 07:38:45;;;;;;;;;;;;;;;7.01;80.21;101764.69;5070219;28;19931;-78
2021/03/29 07:41:24;;;;;;;;;;;;;;;7.21;79.75;101764.34;5071723;28;20391;-78
2021/03/29 07:44:10;;;;;;;;;;;;;;;7.39;80.18;101764.22;5049701;28;20280;-78
2021/03/29 07:46:36;;;;;;;;;;;;;;;7.59;79.74;101771.28;5049090;28;20364;-78
2021/03/29 07:49:29;;;;;;;;;;;;;;;7.77;79.63;101776.66;5039164;28;19917;-78
2021/03/29 07:52:23;;;;;;;;;;;;;;;;;;;;;
2021/03/29 07:54:49;;;;;;;;;;;;;;;8.21;80.13;101776.94;5054889;28;19986;-79
2021/03/29 07:58:00;;;;;;;;;;;;;;;8.42;79.06;101774.63;5037250;28;19986;-79
2021/03/29 08:00:34;;;;;;;;;;;;;;;8.66;78.68;101781.72;5035470;28;19924;-79
2021/03/29 08:03:00;;;;;;;;;;;;;;;8.89;79.08;101774.34;5038980;28;20269;-79
2021/03/29 08:05:40;;;;;;;;;;;;;;;9.07;77.35;101774.06;5049784;28;19917;-79
2021/03/29 08:08:32;;;;;;;;;;;;;;;9.30;79.06;101775.78;5022852;28;19940;-79
2021/03/29 08:11:06;;;;;;;;;;;;;;;9.54;77.05;101778.34;5059820;28;19956;-78
2021/03/29 08:13:43;;;;;;;;;;;;;;;9.78;75.92;101777.00;5058772;28;19913;-79
2021/03/29 08:19:57;;;;;;;;;;;;;;;10.32;75.34;101786.56;5029854;28;19932;-79
2021/03/29 08:22:44;;;;;;;;;;;;;;;10.58;75.20;101776.53;5038783;28;19933;-79
2021/03/29 08:25:28;;;;;;;;;;;;;;;10.79;73.17;101780.34;5030322;28;19971;-79
2021/03/29 08:28:23;;;;;;;;;;;;;;;11.02;74.76;101776.34;5038194;28;20555;-79
2021/03/29 08:32:05;;;;;;;;;;;;;;;;;;;;;
2021/03/29 08:35:34;;;;;;;;;;;;;;;11.68;72.14;101779.56;4963665;28;19925;-78
2021/03/29 08:41:44;;;;;;;;;;;;;;;12.16;70.59;101785.06;4990557;28;19922;-79
2021/03/29 08:45:05;;;;;;;;;;;;;;;12.33;70.76;101780.09;4946467;28;19951;-79
2021/03/29 08:54:07;;;;;;;;;;;;;;;13.04;68.83;101773.75;5030479;28;19967;-79
2021/03/29 09:00:03;;;;;;;;;;;;;;;13.44;68.21;101774.84;5046611;28;20023;-79
2021/03/29 09:02:40;;;;;;;;;;;;;;;13.53;67.36;101775.91;5066886;28;19999;-79
2021/03/29 09:05:37;;;;;;;;;;;;;;;13.69;67.62;101787.88;5049010;28;20342;-79
2021/03/29 09:08:32;;;;;;;;;;;;;;;13.84;67.99;101775.81;5078486;28;19926;-79
2021/03/29 09:11:24;;;;;;;;;;;;;;;14.09;67.16;101786.88;5072671;28;20344;-79
2021/03/29 09:14:04;;;;;;;;;;;;;;;14.21;66.21;101782.94;5051848;28;19913;-79
2021/03/29 09:16:52;;;;;;;;;;;;;;;14.36;67.25;101790.38;5060601;28;19938;-79
2021/03/29 09:19:23;;;;;;;;;;;;;;;14.51;67.04;101795.88;5028383;28;19921;-80
2021/03/29 09:22:49;;;;;;;;;;;;;;;14.64;64.43;101794.41;5054024;28;19920;-79
2021/03/29 09:36:10;;;;;;;;;;;;;;;15.47;65.08;101778.59;5069225;28;19912;-80
2021/03/29 09:39:02;;;;;;;;;;;;;;;15.80;61.76;101783.28;5060016;28;19970;-80
2021/03/29 09:41:47;;;;;;;;;;;;;;;;;;;;;
2021/03/29 09:44:38;;;;;;;;;;;;;;;16.07;62.02;101793.00;5062378;28;20287;-80
2021/03/29 09:47:24;;;;;;;;;;;;;;;16.21;62.45;101793.13;5043857;28;19924;-80
2021/03/29 09:50:03;;;;;;;;;;;;;;;16.30;62.10;101796.94;5020288;28;19916;-80
2021/03/29 09:52:49;;;;;;;;;;;;;;;16.43;63.15;101796.16;5051659;28;19916;-80
2021/03/29 09:58:49;;;;;;;;;;;;;;;16.85;61.23;101797.22;5035326;28;19982;-81
2021/03/29 10:01:49;;;;;;;;;;;;;;;16.98;61.43;101793.66;5018347;28;19925;-81
2021/03/29 10:04:37;;;;;;;;;;;;;;;17.12;62.82;101795.69;5024277;28;19923;-80
2021/03/29 10:07:52;;;;;;;;;;;;;;;17.38;58.15;101810.09;4977537;28;19965;-80
2021/03/29 10:10:27;;;;;;;;;;;;;;;17.55;58.31;101810.34;4977708;28;19918;-80
2021/03/29 10:13:27;;;;;;;;;;;;;;;;;;;;;
2021/03/29 10:16:15;;;;;;;;;;;;;;;17.71;58.74;101810.88;5029804;28;19963;-80
2021/03/29 10:19:15;;;;;;;;;;;;;;;17.79;58.63;101815.78;4985230;28;19917;-80
2021/03/29 10:22:05;;;;;;;;;;;;;;;18.00;57.13;101812.59;4984760;28;19918;-80
2021/03/29 10:28:23;;;;;;;;;;;;;;;18.26;58.40;101810.06;5011268;28;19917;-81
2021/03/29 10:34:15;;;;;;;;;;;;;;;18.43;58.88;101807.41;5011441;28;19917;-80
2021/03/29 10:37:35;;;;;;;;;;;;;;;18.66;56.47;101822.34;5021766;28;19917;-81
2021/03/29 10:40:24;;;;;;;;;;;;;;;18.82;57.43;101819.22;5035751;28;19925;-80
2021/03/29 10:43:07;;;;;;;;;;;;;;;18.92;55.87;101816.16;5033627;28;19916;-81
2021/03/29 10:45:47;;;;;;;;;;;;;;;18.95;57.30;101810.72;5059624;28;19921;-81
2021/03/29 10:48:13;;;;;;;;;;;;;;;19.03;56.96;101814.75;4997575;28;19979;-81
2021/03/29 10:51:09;;;;;;;;;;;;;;;19.22;55.62;101816.53;5048073;28;19924;-81
2021/03/29 10:53:38;;;;;;;;;;;;;;;19.27;55.52;101805.13;5023357;28;19924;-82
2021/03/29 10:56:03;;;;;;;;;;;;;;;19.18;53.65;101807.91;5034635;28;19921;-82
2021/03/29 10:58:29;;;;;;;;;;;;;;;19.11;53.36;101811.19;5052945;28;20039;-81
2021/03/29 11:00:54;;;;;;;;;;;;;;;19.07;53.54;101814.94;5024712;28;19960;-80
2021/03/29 11:03:19;;;;;;;;;;;;;;;18.97;52.54;101816.00;5032588;28;20020;-80
2021/03/29 11:05:45;;;;;;;;;;;;;;;18.81;51.48;101811.94;5042495;28;19916;-81
2021/03/29 11:08:10;;;;;;;;;;;;;;;18.93;52.50;101812.19;5052844;28;19912;-81
2021/03/29 11:10:35;;;;;;;;;;;;;;;18.97;52.49;101810.38;5040122;28;20007;-82
2021/03/29 11:13:01;;;;;;;;;;;;;;;19.00;52.68;101801.31;5030246;28;19970;-82
2021/03/29 11:15:26;;;;;;;;;;;;;;;19.01;52.30;101804.97;5036155;28;19967;-82
2021/03/29 11:17:52;;;;;;;;;;;;;;;19.00;52.52;101800.47;5040512;28;19920;-81
2021/03/29 11:20:17;;;;;;;;;;;;;;;18.94;52.51;101795.00;5053521;28;19927;-82
2021/03/29 11:22:43;;;;;;;;;;;;;;;19.05;50.91;101795.53;5076271;28;20408;-81
2021/03/29 11:25:09;;;;;;;;;;;;;;;19.02;52.39;101801.81;5054271;28;19923;-81
2021/03/29 11:27:34;;;;;;;;;;;;;;;19.09;52.94;101807.00;5065998;28;19917;-81
2021/03/29 11:30:00;;;;;;;;;;;;;;;19.18;53.04;101802.25;5089739;28;19913;-82
2021/03/29 11:32:25;;;;;;;;;;;;;;;19.21;52.96;101810.06;5071932;28;19916;-82
2021/03/29 11:34:51;;;;;;;;;;;;;;;19.26;54.70;101792.22;5073352;28;19963;-81
2021/03/29 11:37:16;;;;;;;;;;;;;;;19.39;53.15;101799.75;5072835;28;19962;-79
2021/03/29 11:39:42;;;;;;;;;;;;;;;19.60;52.60;101798.03;5072648;28;19920;-81
2021/03/29 11:42:07;;;;;;;;;;;;;;;19.67;53.18;101800.44;5056296;28;19916;-77
2021/03/29 11:44:32;;;;;;;;;;;;;;;19.72;53.50;101803.06;5085556;28;19969;-78
2021/03/29 11:46:58;;;;;;;;;;;;;;;19.93;52.64;101796.88;5076628;28;19998;-78
2021/03/29 11:49:23;;;;;;;;;;;;;;;20.11;51.27;101798.56;5075480;28;19989;-78
2021/03/29 11:51:48;;;;;;;;;;;;;;;20.31;49.93;101788.69;5043853;28;19904;-79
2021/03/29 11:54:14;;;;;;;;;;;;;;;20.33;50.19;101789.16;5092956;28;19978;-79
2021/03/29 11:56:39;;;;;;;;;;;;;;;20.39;51.57;101795.47;5076482;28;19920;-79
2021/03/29 11:59:05;;;;;;;;;;;;;;;20.46;52.31;101793.84;5077114;28;20374;-78
2021/03/29 12:01:39;;;;;;;;;;;;;;;20.59;50.55;101788.38;5093707;28;19920;-78
2021/03/29 12:04:29;;;;;;;;;;;;;;;20.69;48.39;101786.06;5077356;28;20379;-78
2021/03/29 12:06:54;;;;;;;;;;;;;;;20.80;48.81;101780.09;5075444;28;19981;-78
2021/03/29 12:12:04;;;;;;;;;;;;;;;20.86;49.16;101778.75;5068669;28;19924;-79
2021/03/29 12:14:31;;;;;;;;;;;;;;;20.94;51.37;101775.91;5053893;28;20283;-79
2021/03/29 12:16:56;;;;;;;;;;;;;;;21.03;49.48;101773.06;5092482;28;19916;-79
2021/03/29 12:19:22;;;;;;;;;;;;;;;21.08;50.93;101764.44;5077180;28;19926;-79
2021/03/29 12:21:48;;;;;;;;;;;;;;;21.18;51.00;101761.25;5075566;28;19954;-79
2021/03/29 12:24:13;;;;;;;;;;;;;;;21.23;50.01;101760.28;5071486;28;19912;-79
2021/03/29 12:26:40;;;;;;;;;;;;;;;21.25;50.33;101757.91;5059221;28;19927;-80
2021/03/29 12:29:06;;;;;;;;;;;;;;;21.18;50.53;101752.78;5076220;28;19978;-78
2021/03/29 12:31:41;;;;;;;;;;;;;;;21.17;50.11;101751.16;5070163;28;19940;-79
2021/03/29 12:34:07;;;;;;;;;;;;;;;21.14;49.70;101751.78;5068470;28;19916;-79
2021/03/29 12:36:42;;;;;;;;;;;;;;;21.31;46.86;101744.44;5076357;28;19912;-79
2021/03/29 12:39:20;;;;;;;;;;;;;;;21.46;47.06;101751.59;5074433;28;19920;-79
2021/03/29 12:41:46;;;;;;;;;;;;;;;21.51;47.64;101749.41;5079246;28;20356;-78
2021/03/29 12:44:16;;;;;;;;;;;;;;;21.54;49.09;101745.06;5075443;28;19920;-79
2021/03/29 12:46:43;;;;;;;;;;;;;;;21.59;48.56;101742.88;5060577;28;20112;-79
2021/03/29 12:49:10;;;;;;;;;;;;;;;21.59;47.70;101745.72;5059935;28;19956;-79
2021/03/29 12:51:35;;;;;;;;;;;;;;;21.62;46.37;101744.19;5072672;28;19962;-79
2021/03/29 12:54:08;;;;;;;;;;;;;;;21.60;46.58;101746.53;5075816;28;19924;-79
2021/03/29 12:56:33;;;;;;;;;;;;;;;21.62;45.81;101739.38;5088932;28;19970;-78
2021/03/29 12:58:59;;;;;;;;;;;;;;;21.61;46.43;101737.69;5079617;28;19924;-79
2021/03/29 13:01:25;;;;;;;;;;;;;;;21.62;46.81;101732.91;5061763;28;19928;-79
2021/03/29 13:03:55;;;;;;;;;;;;;;;21.62;47.21;101733.72;5081337;28;19954;-79
2021/03/29 13:06:25;;;;;;;;;;;;;;;21.63;47.62;101729.72;5080502;28;19950;-79
2021/03/29 13:08:50;;;;;;;;;;;;;;;21.67;46.33;101729.84;5051332;28;19916;-79
2021/03/29 13:13:45;;;;;;;;;;;;;;;21.67;49.38;101724.19;5078654;28;20006;-78
2021/03/29 13:16:11;;;;;;;;;;;;;;;21.74;47.11;101720.84;5073734;28;20013;-79
2021/03/29 13:18:36;;;;;;;;;;;;;;;21.84;46.59;101717.63;5075442;28;19912;-79
2021/03/29 13:21:01;;;;;;;;;;;;;;;21.92;46.20;101722.38;5079191;28;20365;-81
2021/03/29 13:23:27;;;;;;;;;;;;;;;21.86;44.87;101715.28;5061462;28;20288;-81
2021/03/29 13:25:52;;;;;;;;;;;;;;;21.86;43.66;101720.94;5078925;28;19983;-81
2021/03/29 13:28:17;;;;;;;;;;;;;;;21.91;43.91;101717.91;5038900;28;19917;-80
2021/03/29 13:30:43;;;;;;;;;;;;;;;21.89;42.59;101716.59;5062386;28;19955;-80
2021/03/29 13:33:08;;;;;;;;;;;;;;;21.89;41.67;101703.28;5071834;28;20563;-81
2021/03/29 13:36:02;;;;;;;;;;;;;;;21.89;43.28;101714.59;5062205;28;19920;-80
2021/03/29 13:38:27;;;;;;;;;;;;;;;21.88;43.26;101701.63;5074013;28;19916;-81
2021/03/29 13:40:53;;;;;;;;;;;;;;;21.90;43.88;101704.97;5063819;28;19922;-81
2021/03/29 13:43:18;;;;;;;;;;;;;;;21.90;42.12;101702.13;5078261;28;19916;-82
2021/03/29 13:45:44;;;;;;;;;;;;;;;21.88;42.09;101701.63;5054022;28;20333;-82
2021/03/29 13:48:09;;;;;;;;;;;;;;;21.93;42.73;101698.63;5056980;28;19916;-81
2021/03/29 13:50:35;;;;;;;;;;;;;;;21.92;43.70;101691.28;5074121;28;19923;-80
2021/03/29 13:53:01;;;;;;;;;;;;;;;21.95;42.46;101681.28;5063082;28;19923;-81
2021/03/29 13:55:26;;;;;;;;;;;;;;;22.02;44.05;101687.25;5078654;28;19916;-81
2021/03/29 13:57:52;;;;;;;;;;;;;;;22.03;43.35;101692.53;5078076;28;19916;-81
2021/03/29 14:00:18;;;;;;;;;;;;;;;22.08;44.58;101683.03;5070936;28;19943;-80
2021/03/29 14:02:45;;;;;;;;;;;;;;;22.12;44.39;101683.16;5077863;28;20264;-81
2021/03/29 14:05:11;;;;;;;;;;;;;;;22.14;42.80;101678.00;5056148;28;20368;-81
2021/03/29 14:07:36;;;;;;;;;;;;;;;22.07;42.95;101675.72;5076786;28;19912;-81
2021/03/29 14:10:02;;;;;;;;;;;;;;;21.98;42.34;101675.78;5094923;28;19999;-81
2021/03/29 14:12:28;;;;;;;;;;;;;;;21.94;42.60;101669.16;5096879;28;19924;-81
2021/03/29 14:14:53;;;;;;;;;;;;;;;21.96;44.33;101671.66;5074257;28;19922;-81
2021/03/29 14:17:20;;;;;;;;;;;;;;;21.99;41.49;101663.28;5096540;28;20360;-80
2021/03/29 14:19:45;;;;;;;;;;;;;;;21.98;42.45;101664.47;5078424;28;19920;-81
2021/03/29 14:22:14;;;;;;;;;;;;;;;21.91;42.33;101664.19;5078247;28;19922;-81
2021/03/29 14:24:40;;;;;;;;;;;;;;;21.90;43.51;101664.50;5041554;28;19927;-78
2021/03/29 14:27:05;;;;;;;;;;;;;;;21.87;42.90;101660.41;5080220;28;19923;-75
2021/03/29 14:29:41;;;;;;;;;;;;;;;21.80;42.21;101654.44;5097407;28;19916;-80
2021/03/29 14:32:12;;;;;;;;;;;;;;;21.76;41.68;101653.50;5077126;28;19962;-80
2021/03/29 14:34:39;;;;;;;;;;;;;;;21.68;43.50;101649.53;5072998;28;19922;-80
2021/03/29 14:37:24;;;;;;;;;;;;;;;21.66;42.90;101653.88;5095986;28;19916;-80
2021/03/29 14:42:43;;;;;;;;;;;;;;;21.60;41.21;101645.59;5095490;28;20003;-80
2021/03/29 14:45:08;;;;;;;;;;;;;;;21.62;40.69;101648.09;5073669;28;19921;-80
2021/03/29 14:47:34;;;;;;;;;;;;;;;21.56;41.03;101638.13;5075827;28;19920;-80
2021/03/29 14:49:59;;;;;;;;;;;;;;;21.49;41.34;101641.50;5073468;28;20395;-80
2021/03/29 14:52:25;;;;;;;;;;;;;;;21.45;41.46;101643.34;5069184;28;19920;-80
2021/03/29 14:54:51;;;;;;;;;;;;;;;21.40;42.49;101633.06;5074347;28;19923;-80
2021/03/29 14:57:16;;;;;;;;;;;;;;;21.34;43.06;101630.72;5073626;28;19959;-79
2021/03/29 14:59:42;;;;;;;;;;;;;;;21.29;42.24;101628.94;5074358;28;20414;-80
2021/03/29 15:02:08;;;;;;;;;;;;;;;21.31;41.61;101632.28;5030301;28;19921;-80
2021/03/29 15:04:39;;;;;;;;;;;;;;;21.27;41.75;101630.47;5046218;28;20161;-81
2021/03/29 15:07:14;;;;;;;;;;;;;;;21.23;42.35;101623.81;5070747;28;19923;-80
2021/03/29 15:09:39;;;;;;;;;;;;;;;21.17;43.43;101623.16;5070624;28;20366;-81
2021/03/29 15:12:06;;;;;;;;;;;;;;;21.17;44.34;101623.16;5074790;28;19917;-80
2021/03/29 15:14:31;;;;;;;;;;;;;;;21.15;42.57;101615.06;5055973;28;19912;-80
2021/03/29 15:16:56;;;;;;;;;;;;;;;21.14;42.04;101615.38;5073699;28;19924;-81
2021/03/29 15:19:23;;;;;;;;;;;;;;;21.08;43.02;101611.91;5073099;28;19916;-81
2021/03/29 15:21:48;;;;;;;;;;;;;;;21.03;43.10;101617.75;5041162;28;19923;-80
2021/03/29 15:24:14;;;;;;;;;;;;;;;20.97;43.95;101611.47;5072826;28;19917;-80
2021/03/29 15:26:39;;;;;;;;;;;;;;;20.97;43.78;101610.63;5075132;28;19974;-79
2021/03/29 15:29:04;;;;;;;;;;;;;;;20.96;45.32;101614.63;5075054;28;20288;-79
2021/03/29 15:31:30;;;;;;;;;;;;;;;20.92;43.98;101614.50;5073895;28;19924;-80
2021/03/29 15:33:55;;;;;;;;;;;;;;;20.88;43.65;101607.84;5071982;28;20011;-80
2021/03/29 15:36:21;;;;;;;;;;;;;;;20.85;44.36;101605.69;5076213;28;19917;-80
2021/03/29 15:38:47;;;;;;;;;;;;;;;20.81;43.47;101606.72;5055770;28;19916;-80
2021/03/29 15:41:12;;;;;;;;;;;;;;;20.78;43.35;101621.50;5071953;28;19966;-80
2021/03/29 15:43:37;;;;;;;;;;;;;;;20.77;43.25;101608.56;5076300;28;20065;-79
2021/03/29 15:46:03;;;;;;;;;;;;;;;20.76;43.90;101604.91;5095642;28;19912;-79
2021/03/29 15:48:28;;;;;;;;;;;;;;;20.74;44.05;101602.41;5076201;28;19916;-79
2021/03/29 15:50:53;;;;;;;;;;;;;;;20.75;44.30;101603.25;5087087;28;19920;-79
2021/03/29 15:53:19;;;;;;;;;;;;;;;20.73;43.31;101600.78;5095063;28;19999;-80
2021/03/29 15:55:44;;;;;;;;;;;;;;;20.69;42.50;101599.78;5076287;28;19922;-80